Date,TemperatureHighF,TemperatureAvgF,TemperatureLowF,DewpointHighF,DewpointAvgF,DewpointLowF,HumidityHigh,HumidityAvg,HumidityLow,PressureMaxIn,PressureMinIn,WindSpeedMaxMPH,WindSpeedAvgMPH,GustSpeedMaxMPH,PrecipitationSumIn
2013-1-1,49,42,36,48,42,36,99,97,78,29.96,29.83,9,2,17,0.79
2013-1-2,36,32,31,36,32,29,99,98,92,30.07,29.94,8,1,12,0.02
2013-1-3,45,32,25,32,28,24,95,84,46,30.23,30.03,7,1,10,0.00
2013-1-4,46,31,20,33,24,20,97,79,41,30.30,30.21,7,1,11,0.02
2013-1-5,47,36,22,35,26,21,96,71,43,30.24,30.08,9,2,13,0.01
2013-1-6,51,41,28,38,34,24,90,75,50,30.20,30.00,12,3,17,0.00
2013-1-7,54,34,24,33,27,22,94,76,38,30.24,30.10,5,1,8,0.00
2013-1-8,62,44,25,44,34,23,96,73,39,30.19,30.07,12,2,18,0.00
2013-1-9,58,54,51,57,53,44,99,95,76,30.25,30.12,6,1,10,0.40
2013-1-10,66,61,54,60,58,53,99,91,80,30.22,29.88,19,5,29,0.13
2013-1-11,71,67,63,65,62,59,97,84,70,29.94,29.85,14,6,25,0.18
2013-1-12,69,68,66,67,64,59,98,89,74,29.93,29.75,14,4,25,0.41
2013-1-13,70,59,37,65,55,36,98,88,72,30.04,29.73,17,6,27,0.73
2013-1-14,39,33,31,38,32,30,98,96,93,30.18,30.01,11,2,17,0.12
2013-1-15,37,34,32,37,34,32,99,99,98,30.06,29.81,9,1,14,0.99
2013-1-16,38,35,34,36,35,34,99,99,99,29.96,29.80,7,2,10,0.37
2013-1-17,44,37,34,36,32,30,99,84,65,30.25,29.82,14,4,25,0.01
2013-1-18,53,36,26,34,28,22,95,76,31,30.40,30.22,6,1,10,0.00
2013-1-19,56,43,26,36,28,23,96,61,29,30.23,30.03,14,3,22,0.00
2013-1-20,58,41,29,40,30,24,95,70,29,30.10,30.00,7,1,12,0.00
2013-1-21,44,33,25,25,18,11,91,56,30,30.13,29.99,11,2,15,0.00
2013-1-22,33,27,20,12,9,4,61,47,29,30.25,30.10,8,2,10,0.00
2013-1-23,54,39,29,36,22,10,85,52,33,30.20,29.99,11,2,14,0.00
2013-1-24,43,35,29,36,18,7,92,53,29,30.26,30.03,11,3,16,0.00
2013-1-25,43,39,32,42,33,11,98,82,41,30.11,29.90,12,3,24,0.46
2013-1-26,51,37,30,37,32,28,98,84,46,30.18,30.07,5,1,8,0.00
2013-1-27,52,43,28,42,35,27,97,73,49,30.19,30.08,12,4,17,0.01
2013-1-28,60,54,47,52,46,35,85,74,59,30.13,30.01,14,5,23,0.00
2013-1-29,70,62,54,62,58,51,93,86,75,30.02,29.55,17,6,26,0.00
2013-1-30,71,54,36,64,48,23,99,83,60,29.76,29.37,24,7,42,1.11
2013-1-31,47,39,32,35,25,21,92,58,36,30.03,29.77,15,6,24,0.00
2013-2-1,34,25,18,32,17,12,98,70,44,30.31,30.03,11,3,18,0.00
2013-2-2,47,33,22,33,26,16,94,75,55,30.16,29.91,10,2,14,0.02
2013-2-3,52,38,26,35,29,24,96,72,37,30.00,29.86,14,3,20,0.00
2013-2-4,54,41,25,33,26,16,96,62,22,29.98,29.78,15,3,21,0.00
2013-2-5,64,49,35,45,39,32,94,72,38,29.91,29.78,9,2,13,0.01
2013-2-6,64,45,29,41,34,29,98,72,29,30.06,29.91,5,1,8,0.00
2013-2-7,61,52,42,49,43,32,96,74,42,29.95,29.78,12,2,17,0.00
2013-2-8,50,43,36,48,39,30,99,86,72,30.14,29.74,14,3,19,0.11
2013-2-9,60,44,32,36,30,24,82,61,27,30.18,29.99,6,2,10,0.00
2013-2-10,60,54,49,57,41,28,96,65,36,30.02,29.70,20,6,27,0.45
2013-2-11,59,51,38,58,42,24,97,73,35,30.01,29.80,8,2,15,0.01
2013-2-12,55,46,36,40,35,29,95,69,38,30.01,29.65,5,1,11,0.01
2013-2-13,46,41,34,43,38,33,99,91,73,29.87,29.54,9,2,16,0.13
2013-2-14,60,43,30,40,34,28,99,74,32,29.92,29.83,11,2,17,0.01
2013-2-15,53,40,29,41,32,22,98,74,52,29.99,29.88,9,2,14,0.00
2013-2-16,38,30,20,23,17,7,81,59,40,30.04,29.94,11,3,17,0.00
2013-2-17,48,33,15,23,16,9,91,55,21,30.12,30.03,10,2,14,0.01
2013-2-18,61,50,36,41,26,16,83,41,27,30.06,29.74,20,8,36,0.09
2013-2-19,51,44,27,45,27,2,96,58,14,30.07,29.75,16,6,24,0.15
2013-2-20,37,30,24,22,18,15,84,60,42,30.15,30.03,6,2,9,0.00
2013-2-21,56,41,26,45,27,15,94,62,22,30.05,29.72,19,3,27,0.47
2013-2-22,56,51,48,49,47,44,94,86,72,29.91,29.73,11,4,20,0.01
2013-2-23,56,46,33,46,39,30,95,77,50,29.87,29.73,6,2,9,0.00
2013-2-24,59,42,29,33,27,16,95,63,21,29.95,29.82,6,1,10,0.00
2013-2-25,64,50,34,47,32,22,84,52,21,29.84,29.40,20,5,30,0.00
2013-2-26,52,47,40,48,42,34,94,83,60,29.60,29.29,21,8,33,0.13
2013-2-27,46,41,37,35,33,31,83,74,61,29.77,29.60,11,5,17,0.01
2013-2-28,38,36,33,32,28,25,87,72,60,29.89,29.71,8,4,13,0.01
2013-3-1,38,35,33,33,32,28,99,89,75,29.89,29.84,7,3,11,0.00
2013-3-2,34,32,29,32,30,26,99,93,88,29.97,29.85,9,2,15,0.08
2013-3-3,43,32,25,27,22,12,94,70,30,30.14,29.94,9,3,14,0.02
2013-3-4,58,44,27,31,24,19,88,51,24,30.16,29.91,16,4,22,0.00
2013-3-5,58,48,32,56,42,20,97,81,51,30.04,29.71,21,8,33,0.46
2013-3-6,44,35,29,31,26,20,84,70,57,30.30,30.03,14,5,22,0.00
2013-3-7,45,35,29,32,28,25,85,75,56,30.38,30.29,7,2,11,0.00
2013-3-8,61,42,26,33,26,7,94,61,12,30.40,30.26,5,1,10,0.00
2013-3-9,67,53,35,33,28,14,87,44,15,30.26,30.09,13,4,18,0.00
2013-3-10,71,64,56,48,33,27,54,32,20,30.11,29.87,21,9,30,0.00
2013-3-11,66,51,39,57,44,32,98,79,45,30.01,29.80,26,5,37,0.83
2013-3-12,56,45,38,35,30,24,78,59,34,30.18,29.99,11,3,17,0.00
2013-3-13,49,38,31,30,24,17,88,60,31,30.40,30.15,12,4,19,0.00
2013-3-14,52,37,21,38,23,8,96,62,18,30.44,30.25,10,1,12,0.25
2013-3-15,75,56,33,44,38,30,97,56,29,30.25,29.94,13,3,21,0.00
2013-3-16,77,66,57,50,46,41,64,48,32,29.96,29.85,16,5,24,0.00
2013-3-17,73,61,46,54,48,42,94,64,36,29.99,29.85,14,3,23,0.00
2013-3-18,64,59,46,60,55,42,97,86,62,30.01,29.70,18,5,32,0.50
2013-3-19,59,46,33,48,29,9,99,60,15,30.19,30.01,11,2,17,0.00
2013-3-20,56,42,30,32,25,8,89,54,19,30.19,30.00,14,4,23,0.00
2013-3-21,45,33,20,25,17,9,85,53,25,30.11,29.97,10,2,15,0.00
2013-3-22,49,42,33,38,27,19,83,56,39,30.05,29.98,9,2,12,0.01
2013-3-23,60,50,43,49,44,37,95,82,61,30.01,29.75,5,1,12,0.14
2013-3-24,63,50,37,56,45,26,99,83,59,29.77,29.43,22,6,32,0.38
2013-3-25,37,34,32,30,26,23,91,72,62,30.14,29.77,17,8,26,0.00
2013-3-26,39,34,31,32,29,25,96,80,62,30.35,30.13,9,4,14,0.01
2013-3-27,53,39,25,33,28,23,96,68,32,30.41,30.30,9,2,17,0.00
2013-3-28,62,44,27,36,31,25,96,66,29,30.40,30.29,8,1,13,0.00
2013-3-29,62,49,37,46,39,34,93,71,38,30.35,30.19,8,1,11,0.01
2013-3-30,66,54,42,55,47,40,99,81,39,30.22,29.97,8,2,13,0.37
2013-3-31,60,55,46,58,54,45,99,95,88,29.97,29.90,8,2,13,0.05
2013-4-1,66,54,45,52,44,31,99,73,36,30.16,29.94,8,2,13,0.01
2013-4-2,52,44,35,31,27,20,79,53,32,30.29,30.15,6,1,10,0.00
2013-4-3,57,49,41,30,21,12,60,35,19,30.27,30.16,7,2,13,0.00
2013-4-4,50,46,42,46,42,22,99,87,34,30.17,30.00,7,1,10,0.58
2013-4-5,67,53,42,48,41,28,99,71,25,30.14,30.01,8,2,15,0.01
2013-4-6,74,57,36,48,35,22,99,54,16,30.18,30.03,13,3,20,0.00
2013-4-7,72,63,50,49,43,35,88,51,33,30.15,30.02,16,4,24,0.00
2013-4-8,78,65,48,57,52,46,95,65,38,30.11,29.98,16,4,30,0.00
2013-4-9,82,70,54,62,56,50,92,62,40,30.18,30.02,14,4,23,0.00
2013-4-10,85,76,66,59,55,45,73,50,25,30.10,29.85,14,5,21,0.00
2013-4-11,79,68,53,64,58,53,99,74,50,29.88,29.62,20,5,31,0.99
2013-4-12,67,54,45,53,42,34,99,71,32,30.02,29.74,11,3,16,0.05
2013-4-13,70,54,40,46,41,34,97,66,29,30.14,30.02,7,1,11,0.00
2013-4-14,71,57,44,54,46,30,97,73,22,30.05,29.90,17,3,29,0.01
2013-4-15,80,68,58,60,56,53,90,67,41,30.08,29.92,11,4,17,0.00
2013-4-16,81,73,65,66,63,58,84,72,57,30.19,30.06,14,4,21,0.00
2013-4-17,87,74,64,69,64,62,96,73,43,30.20,30.04,15,3,21,0.00
2013-4-18,81,74,67,63,59,53,87,60,40,30.04,29.67,17,7,31,0.01
2013-4-19,75,50,36,66,42,31,98,77,47,30.17,29.67,15,5,29,0.89
2013-4-20,64,48,32,43,33,24,98,64,24,30.33,30.17,10,1,14,0.00
2013-4-21,71,54,37,44,36,23,91,59,19,30.39,30.25,8,1,11,0.00
2013-4-22,74,60,45,47,41,24,93,56,17,30.32,30.13,12,2,17,0.00
2013-4-23,75,63,49,53,47,39,91,57,35,30.20,30.03,15,4,24,0.00
2013-4-24,67,56,46,59,50,39,97,80,61,30.31,29.96,16,4,24,0.33
2013-4-25,67,52,41,42,36,24,92,60,22,30.40,30.28,8,1,14,0.00
2013-4-26,72,54,39,50,42,33,97,70,29,30.44,30.29,12,2,19,0.39
2013-4-27,62,56,51,58,55,50,99,96,85,30.36,30.00,10,3,17,1.24
2013-4-28,65,61,58,64,60,58,99,96,88,30.03,29.94,10,2,16,0.32
2013-4-29,76,62,52,61,57,49,99,84,42,30.07,29.95,5,1,8,0.04
2013-4-30,80,64,46,61,53,45,99,73,33,30.09,29.99,8,1,12,0.00
2013-5-1,78,70,60,62,58,50,93,69,42,30.18,30.09,11,3,18,0.00
2013-5-2,77,67,56,61,56,53,92,70,48,30.20,30.09,12,2,17,0.00
2013-5-3,73,66,62,57,55,53,80,68,53,30.11,29.91,21,6,30,0.00
2013-5-4,62,47,43,56,45,43,99,96,77,30.01,29.90,6,1,14,1.09
2013-5-5,60,51,46,53,49,45,99,93,72,29.96,29.82,8,1,13,0.24
2013-5-6,62,53,47,54,50,47,99,91,67,29.95,29.78,8,1,14,0.65
2013-5-7,72,58,45,58,52,44,99,84,54,30.04,29.94,6,1,11,0.00
2013-5-8,80,64,48,63,56,47,99,79,42,30.10,30.00,8,1,12,0.00
2013-5-9,82,68,52,66,58,51,99,74,37,30.15,30.03,11,2,16,0.00
2013-5-10,71,65,60,63,61,58,97,87,73,30.08,29.95,13,3,20,0.45
2013-5-11,74,63,51,64,59,50,99,88,58,30.07,29.95,8,2,14,0.00
2013-5-12,66,56,42,56,39,25,99,58,24,30.21,30.06,10,2,14,0.00
2013-5-13,71,54,36,49,39,27,99,66,20,30.30,30.18,7,1,11,0.00
2013-5-14,84,66,44,59,50,43,99,62,33,30.23,30.06,17,3,25,0.00
2013-5-15,86,72,55,61,54,43,92,58,23,30.18,30.03,10,2,17,0.00
2013-5-16,85,71,58,64,58,46,96,68,29,30.10,29.98,11,1,17,0.00
2013-5-17,73,65,59,70,64,56,99,94,84,30.11,30.01,8,1,13,0.27
2013-5-18,84,73,65,71,67,64,99,84,54,30.06,29.99,9,2,13,0.34
2013-5-19,87,74,66,75,68,62,99,83,58,30.06,29.98,12,2,21,0.05
2013-5-20,83,73,62,70,66,60,93,79,58,30.11,29.99,9,2,14,0.00
2013-5-21,86,73,63,73,67,61,99,82,53,30.05,29.89,14,2,24,0.18
2013-5-22,83,71,64,68,65,63,99,83,58,29.97,29.87,11,2,21,0.07
2013-5-23,80,69,57,69,60,54,99,75,45,30.12,29.94,8,2,15,0.00
2013-5-24,73,62,50,58,50,43,96,69,35,30.34,30.11,10,2,17,0.00
2013-5-25,80,62,45,54,46,25,99,65,15,30.38,30.20,5,1,8,0.00
2013-5-26,86,68,49,60,52,40,99,65,23,30.28,30.16,6,1,12,0.00
2013-5-27,86,72,55,66,58,52,99,64,32,30.22,30.09,12,2,20,0.00
2013-5-28,87,77,63,62,58,51,86,55,34,30.18,30.07,13,3,23,0.00
2013-5-29,87,78,65,67,62,58,83,60,41,30.20,30.08,12,3,18,0.00
2013-5-30,84,77,68,70,66,60,85,69,56,30.19,30.07,14,4,22,0.00
2013-5-31,84,77,71,71,67,64,79,70,58,30.14,30.02,13,3,21,0.00
2013-6-1,83,75,67,74,68,64,98,79,67,30.08,29.91,13,3,20,0.43
2013-6-2,81,72,67,71,69,65,99,88,63,30.00,29.92,6,1,10,0.86
2013-6-3,81,70,60,66,62,57,99,77,46,30.06,29.96,8,1,13,0.00
2013-6-4,85,70,55,66,60,54,99,75,37,30.09,29.99,6,1,10,0.00
2013-6-5,79,69,60,72,67,60,99,91,72,30.07,29.91,8,1,12,0.70
2013-6-6,84,73,66,72,68,65,99,87,60,29.92,29.79,10,1,14,0.00
2013-6-7,82,71,63,72,67,62,99,87,56,29.93,29.79,6,1,10,0.00
2013-6-8,84,72,62,71,62,53,99,75,37,30.09,29.92,8,1,14,0.00
2013-6-9,79,71,64,74,69,63,99,94,79,30.11,29.95,9,1,16,0.92
2013-6-10,84,75,68,72,68,61,99,82,48,30.02,29.91,17,3,27,0.41
2013-6-11,93,79,67,77,72,67,99,81,45,30.08,30.00,5,1,9,0.01
2013-6-12,94,82,71,79,73,67,99,75,44,30.13,29.99,8,1,14,0.00
2013-6-13,91,80,70,78,71,64,91,74,57,30.00,29.85,14,3,25,0.02
2013-6-14,85,73,61,64,60,52,99,69,35,30.08,29.96,10,1,14,0.00
2013-6-15,87,74,58,68,62,50,99,72,33,30.15,30.06,8,1,15,0.00
2013-6-16,90,76,65,72,68,65,99,78,49,30.14,30.02,8,1,14,0.05
2013-6-17,84,72,69,75,70,68,99,94,70,30.08,29.94,11,2,24,0.78
2013-6-18,82,73,65,74,68,64,99,88,58,30.01,29.88,8,2,14,0.39
2013-6-19,88,74,62,76,68,62,99,83,46,30.12,29.99,5,0,9,0.00
2013-6-20,90,75,65,73,67,61,99,80,44,30.22,30.11,13,2,20,0.04
2013-6-21,88,76,64,71,68,64,99,80,48,30.28,30.17,11,2,15,0.00
2013-6-22,88,77,65,71,67,61,99,75,43,30.26,30.11,8,1,12,0.00
2013-6-23,90,76,63,73,68,63,99,78,43,30.22,30.11,8,1,13,0.00
2013-6-24,89,78,67,75,70,66,99,80,48,30.23,30.11,9,2,16,0.00
2013-6-25,90,80,69,75,72,68,98,78,51,30.18,30.02,8,2,12,0.00
2013-6-26,91,82,71,75,72,67,99,73,48,30.08,29.91,12,2,18,0.00
2013-6-27,94,81,70,79,72,67,96,75,45,29.97,29.86,8,2,15,0.02
2013-6-28,88,78,67,76,71,67,99,79,57,29.89,29.73,9,1,15,0.00
2013-6-29,89,76,64,72,64,54,99,70,34,29.77,29.69,7,1,15,0.01
2013-6-30,86,74,60,68,64,60,99,75,44,29.85,29.74,7,1,11,0.00
2013-7-1,84,72,63,72,66,62,99,82,51,29.94,29.81,8,1,14,0.01
2013-7-2,84,72,63,70,64,58,99,79,43,30.09,29.93,10,1,14,0.00
2013-7-3,83,72,64,72,68,63,99,89,60,30.16,30.07,11,1,16,0.12
2013-7-4,71,69,67,71,69,67,99,99,99,30.16,30.08,8,1,13,4.12
2013-7-5,78,72,69,74,71,69,99,96,84,30.17,30.09,10,2,14,0.15
2013-7-6,72,70,66,72,70,66,99,99,98,30.19,30.11,6,1,8,1.25
2013-7-7,88,77,69,75,71,68,99,83,54,30.19,30.11,5,1,8,0.00
2013-7-8,91,78,70,77,73,69,99,84,53,30.23,30.13,7,1,8,0.00
2013-7-9,92,80,70,78,73,67,99,81,46,30.22,30.09,8,1,12,0.00
2013-7-10,94,82,71,79,74,71,99,80,53,30.12,29.94,9,1,16,1.54
2013-7-11,92,78,69,77,72,69,99,84,49,30.02,29.94,7,1,11,0.01
2013-7-12,86,74,63,72,66,60,98,78,47,30.05,29.97,8,1,13,0.00
2013-7-13,88,72,58,72,66,58,99,83,47,30.10,30.00,16,1,21,0.31
2013-7-14,88,77,69,75,72,69,99,85,58,30.22,30.09,11,2,15,0.05
2013-7-15,89,80,72,73,70,66,99,75,48,30.32,30.21,11,2,17,0.00
2013-7-16,93,80,70,77,73,69,99,82,50,30.37,30.27,5,0,8,0.00
2013-7-17,95,82,70,81,74,68,99,81,44,30.34,30.21,6,0,10,0.00
2013-7-18,92,81,74,77,74,70,99,82,51,30.24,30.08,5,1,8,0.00
2013-7-19,93,81,70,80,73,69,99,79,48,30.15,30.00,8,1,11,0.00
2013-7-20,91,81,70,78,72,66,99,77,46,30.06,29.93,8,1,12,0.00
2013-7-21,86,77,73,77,74,71,98,89,72,30.05,29.97,8,2,12,0.05
2013-7-22,75,72,71,74,71,70,99,97,94,30.00,29.96,8,2,13,0.43
2013-7-23,89,78,70,78,72,67,99,83,52,29.99,29.86,7,1,11,0.05
2013-7-24,89,77,70,76,71,66,99,83,56,29.99,29.88,7,1,11,0.00
2013-7-25,86,73,61,70,65,61,99,79,47,30.09,29.97,8,1,11,0.00
2013-7-26,88,74,60,70,65,60,99,78,42,30.12,30.02,5,1,9,0.00
2013-7-27,85,74,67,73,70,67,99,86,57,30.03,29.93,5,0,8,0.00
2013-7-28,81,71,62,68,63,56,99,78,47,30.13,29.99,6,1,8,0.00
2013-7-29,84,69,56,66,60,52,99,77,38,30.24,30.12,0,0,1,0.00
2013-7-30,90,74,60,75,67,58,99,82,36,30.25,30.12,8,1,14,0.35
2013-7-31,86,75,68,77,73,68,99,93,72,30.18,29.99,8,1,13,0.22
2013-8-1,87,76,66,75,71,66,99,85,54,30.08,29.99,9,1,14,0.01
2013-8-2,89,74,62,74,66,59,99,81,43,30.09,30.03,0,0,2,0.00
2013-8-3,79,73,67,76,72,66,99,95,77,30.12,30.02,0,0,2,0.09
2013-8-4,87,76,65,77,70,63,99,83,52,30.14,30.08,1,0,6,0.00
2013-8-5,86,73,63,70,65,57,99,79,40,30.14,30.01,4,0,7,0.00
2013-8-6,83,75,68,77,73,68,99,93,78,30.03,29.97,0,0,2,0.20
2013-8-7,79,74,71,77,74,70,99,98,92,30.07,29.97,8,0,17,1.15
2013-8-8,89,74,70,78,73,11,99,95,10,30.05,29.98,97,1,97,0.19
2013-8-9,88,77,71,79,74,71,99,91,70,30.10,30.02,0,0,2,0.01
2013-8-10,92,79,70,80,75,70,99,88,54,30.17,30.08,8,0,14,0.00
2013-8-11,91,79,70,78,75,70,99,87,59,30.19,30.09,7,1,11,0.00
2013-8-12,88,77,72,79,75,71,99,94,68,30.15,29.97,6,1,10,0.30
2013-8-13,86,76,71,76,72,68,99,88,63,30.05,29.94,6,1,9,0.00
2013-8-14,81,71,59,69,63,57,98,79,47,30.10,29.91,8,1,14,0.00
2013-8-15,83,67,54,70,63,54,99,87,60,29.97,29.88,5,0,8,0.00
2013-8-16,78,70,63,69,65,62,99,86,63,29.99,29.92,7,1,13,0.00
2013-8-17,75,69,65,69,66,64,99,91,75,30.02,29.95,7,0,10,0.02
2013-8-18,77,70,64,71,68,64,99,93,78,30.05,29.97,6,0,13,0.00
2013-8-19,83,74,64,73,70,64,99,90,68,30.03,29.93,4,0,9,0.00
2013-8-20,88,77,69,74,72,69,99,86,57,30.04,29.95,9,1,16,0.04
2013-8-21,85,76,69,77,72,69,99,90,66,30.08,29.99,8,1,13,0.33
2013-8-22,91,78,66,77,72,66,99,85,53,30.07,29.93,8,0,15,0.25
2013-8-23,91,77,67,78,72,66,99,86,49,29.99,29.88,5,0,11,0.02
2013-8-24,91,77,66,77,71,66,99,84,49,30.10,29.96,5,0,8,0.00
2013-8-25,88,76,65,73,67,62,99,78,44,30.22,30.10,10,1,15,0.00
2013-8-26,87,73,61,71,65,60,99,79,44,30.20,30.04,6,1,8,0.00
2013-8-27,89,74,61,75,67,61,99,82,47,30.06,29.94,6,0,9,0.00
2013-8-28,93,77,64,77,70,64,99,83,43,29.98,29.89,4,0,8,0.00
2013-8-29,94,79,67,79,73,66,99,83,49,29.95,29.85,6,0,9,0.00
2013-8-30,94,81,70,80,75,70,99,84,51,29.90,29.79,7,1,11,0.00
2013-8-31,91,78,70,79,74,70,99,90,52,29.85,29.75,7,0,10,0.01
2013-9-1,85,76,72,76,72,69,99,89,63,29.83,29.74,11,1,17,0.01
2013-9-2,85,76,70,74,72,69,99,88,67,29.85,29.75,9,1,14,0.00
2013-9-3,89,77,64,75,69,63,99,79,44,29.93,29.79,3,0,6,0.00
2013-9-4,87,72,59,70,63,58,99,78,42,30.03,29.91,4,0,8,0.00
2013-9-5,88,71,56,70,63,56,99,80,39,30.06,29.99,5,0,8,0.00
2013-9-6,91,73,57,71,63,55,99,78,30,30.05,29.94,7,0,9,0.00
2013-9-7,91,75,60,73,66,60,99,79,42,30.00,29.88,8,1,11,0.00
2013-9-8,92,75,63,76,68,62,99,83,46,29.92,29.83,4,0,6,0.00
2013-9-9,93,78,67,76,71,67,99,81,45,29.99,29.89,9,1,16,0.00
2013-9-10,91,78,70,74,72,68,99,82,50,30.08,29.98,9,1,12,0.00
2013-9-11,91,78,67,76,71,66,99,81,45,30.26,30.04,8,1,11,0.00
2013-9-12,91,75,67,77,70,67,99,87,52,30.14,29.98,17,1,24,0.01
2013-9-13,81,70,58,70,61,49,99,75,36,30.06,29.97,9,2,15,0.00
2013-9-14,80,63,48,59,54,48,99,75,41,30.12,30.04,8,0,10,0.00
2013-9-15,83,66,51,66,59,51,99,80,45,30.17,30.10,8,1,14,0.00
2013-9-16,87,69,53,69,59,45,99,77,24,30.22,30.15,4,0,8,0.01
2013-9-17,86,72,60,73,66,60,99,83,51,30.24,30.12,9,1,14,0.00
2013-9-18,82,72,66,70,65,62,98,80,60,30.24,30.13,8,2,17,0.00
2013-9-19,87,74,66,70,66,64,99,78,49,30.21,30.07,10,1,13,0.00
2013-9-20,86,76,63,70,67,63,99,76,49,30.10,29.88,8,2,16,0.24
2013-9-21,76,67,55,71,63,54,99,89,52,29.92,29.78,8,2,12,1.20
2013-9-22,80,63,49,62,54,48,99,77,39,29.98,29.91,8,1,11,0.01
2013-9-23,83,65,48,64,57,48,99,81,43,30.05,29.97,10,1,11,0.00
2013-9-24,78,68,56,68,64,55,99,88,67,30.05,29.91,10,2,16,0.07
2013-9-25,77,69,62,72,67,62,99,95,79,29.93,29.85,5,0,11,0.08
2013-9-26,84,70,58,72,65,58,99,85,51,30.08,29.92,6,0,11,0.00
2013-9-27,85,66,52,67,59,52,99,82,40,30.18,30.07,8,1,11,0.00
2013-9-28,81,66,55,63,58,52,99,80,39,30.25,30.12,10,1,14,0.00
2013-9-29,75,65,56,65,59,55,99,85,55,30.17,30.06,8,1,14,0.01
2013-9-30,77,68,62,64,61,57,99,82,53,30.12,30.02,9,2,13,0.01
2013-10-1,83,70,59,69,64,59,99,85,57,30.18,30.07,8,1,14,0.00
2013-10-2,85,72,62,71,67,62,99,86,54,30.20,30.09,6,0,7,0.00
2013-10-3,86,73,63,70,65,60,99,79,44,30.16,30.06,7,1,14,0.00
2013-10-4,85,71,60,74,67,60,99,88,59,30.19,30.09,8,0,11,0.00
2013-10-5,87,76,64,70,68,63,99,78,49,30.14,29.99,10,2,14,0.00
2013-10-6,78,68,54,73,65,54,99,90,78,30.02,29.85,10,2,17,1.20
2013-10-7,70,58,46,58,50,46,99,79,47,30.15,29.97,10,1,15,0.01
2013-10-8,77,61,45,57,51,44,99,73,43,30.17,30.11,5,0,10,0.00
2013-10-9,81,65,54,62,58,53,99,81,48,30.23,30.14,7,1,12,0.00
2013-10-10,82,66,56,67,60,56,99,84,46,30.20,30.08,4,0,8,0.00
2013-10-11,82,63,49,63,56,49,99,81,41,30.15,30.06,6,0,9,0.00
2013-10-12,82,63,48,64,56,48,99,82,44,30.18,30.08,6,0,10,0.00
2013-10-13,85,66,53,65,58,53,99,80,40,30.28,30.17,6,0,11,0.00
2013-10-14,84,67,53,66,61,53,99,82,48,30.28,30.14,4,0,8,0.00
2013-10-15,74,67,62,65,62,60,99,83,63,30.17,30.06,11,1,15,0.00
2013-10-16,68,64,62,65,63,61,99,96,89,30.08,29.95,8,1,11,0.52
2013-10-17,62,58,50,62,57,49,99,98,88,30.06,29.94,7,1,11,0.05
2013-10-18,66,52,46,58,50,46,99,91,58,30.14,30.02,4,0,6,0.01
2013-10-19,66,51,38,58,49,38,99,91,70,30.11,29.95,8,1,16,0.00
2013-10-20,67,46,32,49,38,29,99,79,27,30.16,30.06,5,0,8,0.00
2013-10-21,73,52,34,56,42,34,99,75,32,30.15,30.02,8,1,12,0.00
2013-10-22,62,52,42,55,50,42,99,95,72,30.09,29.93,4,0,6,0.00
2013-10-23,56,46,35,49,39,33,99,79,45,30.16,29.91,12,2,18,0.00
2013-10-24,58,47,36,44,40,30,99,78,53,30.37,30.15,7,1,12,0.01
2013-10-25,55,38,26,34,27,20,98,69,28,30.51,30.36,8,1,12,0.00
2013-10-26,62,45,24,43,30,23,99,64,25,30.37,30.15,11,2,18,0.00
2013-10-27,66,58,50,56,51,43,90,77,67,30.17,30.10,7,1,10,0.00
2013-10-28,68,59,52,60,55,51,99,88,70,30.30,30.13,6,1,11,0.00
2013-10-29,76,62,48,62,56,47,99,85,55,30.34,30.21,8,1,12,0.01
2013-10-30,79,69,59,63,58,52,96,70,41,30.29,30.11,11,2,17,0.00
2013-10-31,72,68,64,68,61,55,96,79,67,30.12,29.66,22,5,36,0.11
2013-11-1,73,62,46,64,49,36,95,69,28,29.91,29.75,9,2,20,0.00
2013-11-2,66,51,38,52,41,35,99,74,33,30.20,29.88,8,1,13,0.01
2013-11-3,63,45,32,46,35,24,99,72,24,30.35,30.18,8,1,13,0.00
2013-11-4,68,54,32,41,34,25,99,54,20,30.40,30.30,14,2,26,0.00
2013-11-5,67,56,46,45,37,32,85,51,30,30.42,30.28,10,2,14,0.00
2013-11-6,76,64,48,62,54,35,99,71,45,30.28,30.08,14,3,21,0.47
2013-11-7,61,46,32,61,38,25,99,77,30,30.36,30.10,10,3,17,0.15
2013-11-8,61,41,27,37,27,10,99,67,15,30.42,30.28,4,0,8,0.00
2013-11-9,62,47,29,43,32,24,99,64,26,30.34,30.23,11,1,18,0.05
2013-11-10,69,51,34,47,37,26,99,64,21,30.37,30.28,8,1,12,0.00
2013-11-11,71,49,29,39,25,5,97,54,10,30.34,30.18,5,0,8,0.05
2013-11-12,53,40,29,45,23,3,97,55,20,30.61,30.20,14,4,21,0.01
2013-11-13,50,32,21,21,14,5,84,52,17,30.69,30.47,5,1,10,0.09
2013-11-14,60,36,18,33,14,-3,94,54,10,30.48,30.24,11,1,17,0.01
2013-11-15,58,50,36,53,39,19,99,70,37,30.26,30.11,8,1,12,0.20
2013-11-16,67,60,50,60,57,50,99,90,78,30.18,30.04,14,4,21,0.00
2013-11-17,71,66,61,70,64,58,99,94,83,30.04,29.83,14,5,23,0.38
2013-11-18,64,54,41,61,40,28,99,63,30,30.25,29.97,9,2,14,0.00
2013-11-19,55,45,37,31,26,18,71,50,24,30.29,30.19,7,1,11,0.00
2013-11-20,63,47,29,38,27,15,94,53,16,30.28,30.19,17,2,23,0.00
2013-11-21,66,57,48,54,47,38,80,69,57,30.33,30.23,12,3,17,0.00
2013-11-22,62,56,47,61,55,47,99,97,81,30.34,30.24,10,3,16,0.13
2013-11-23,49,41,26,47,34,15,99,77,39,30.51,30.30,11,4,20,0.00
2013-11-24,40,28,20,18,12,6,76,52,25,30.63,30.46,8,2,16,0.00
2013-11-25,43,34,23,37,19,-5,99,59,14,30.46,30.18,9,1,13,0.25
2013-11-26,41,38,34,41,37,32,99,99,92,30.19,29.86,11,3,20,0.87
2013-11-27,35,29,18,32,17,8,91,62,37,30.38,29.96,12,4,21,0.00
2013-11-28,46,28,13,20,11,-9,93,59,10,30.51,30.36,5,1,8,0.00
2013-11-29,56,34,19,29,18,8,95,62,16,30.59,30.47,4,0,8,0.00
2013-11-30,58,40,23,36,20,2,95,53,12,30.50,30.28,13,2,23,0.00
2013-12-1,57,44,26,41,29,22,97,60,34,30.29,29.99,9,2,15,0.00
2013-12-2,55,51,48,53,49,41,99,95,68,30.00,29.80,8,2,13,0.00
2013-12-3,60,55,49,57,54,48,99,97,89,29.87,29.79,8,2,12,0.01
2013-12-4,75,67,56,65,61,56,99,82,53,29.95,29.84,17,5,26,0.00
2013-12-5,73,60,40,70,58,40,99,94,73,30.10,29.91,12,4,18,0.09
2013-12-6,40,37,32,40,36,32,99,99,99,30.34,30.03,10,3,16,1.49
2013-12-7,35,32,30,33,31,30,99,96,92,30.49,30.30,9,3,17,0.00
2013-12-8,51,41,34,51,41,33,99,98,93,30.34,30.07,7,1,11,0.51
2013-12-9,50,38,32,50,38,32,99,99,99,30.24,30.09,6,2,12,0.18
2013-12-10,39,31,23,32,29,22,99,93,68,30.41,30.11,8,1,13,0.06
2013-12-11,51,33,19,36,23,14,99,75,24,30.52,30.38,8,1,12,0.01
2013-12-12,42,27,18,23,14,0,89,64,19,30.60,30.43,6,1,12,0.00
2013-12-13,47,35,17,30,16,5,96,56,18,30.42,30.09,5,1,9,0.00
2013-12-14,52,46,36,52,42,11,99,89,24,30.10,29.83,10,4,18,0.32
2013-12-15,36,33,31,36,31,28,99,91,82,30.25,30.01,8,3,14,0.00
2013-12-16,56,40,27,34,29,24,99,68,32,30.25,30.14,11,2,17,0.00
2013-12-17,61,45,28,35,26,20,89,51,28,30.30,30.10,13,2,20,0.00
2013-12-18,54,37,21,32,15,-5,96,53,10,30.39,30.23,8,1,12,0.00
2013-12-19,63,52,32,22,14,4,63,24,10,30.29,30.11,13,4,20,0.00
2013-12-20,66,60,55,60,46,10,95,65,16,30.13,29.99,16,5,28,0.02
2013-12-21,74,68,62,68,64,60,99,86,75,29.99,29.74,21,7,31,0.61
2013-12-22,62,58,54,61,57,54,99,97,91,30.10,29.78,11,3,18,0.46
2013-12-23,54,36,27,54,32,24,99,86,63,30.45,30.09,9,3,14,0.04
2013-12-24,35,28,19,25,15,5,89,60,29,30.55,30.43,10,2,16,0.00
2013-12-25,48,30,16,26,16,5,93,62,18,30.46,30.32,8,1,13,0.00
2013-12-26,49,32,21,34,22,15,96,71,26,30.44,30.34,6,1,9,0.00
2013-12-27,57,34,20,33,18,-1,96,63,10,30.48,30.38,4,0,7,0.00
2013-12-28,49,37,25,41,32,22,99,84,36,30.38,29.95,7,0,9,0.37
2013-12-29,55,44,36,48,40,34,99,89,48,30.15,29.93,8,1,12,0.21
2013-12-30,36,33,28,34,30,26,98,90,83,30.31,30.14,7,1,11,0.00
2013-12-31,45,29,20,29,23,20,99,81,38,30.49,30.29,4,0,7,0.00
2014-1-1,53,36,18,36,23,15,99,66,23,30.37,30.02,11,2,17,0.00
2014-1-2,47,35,20,47,30,8,99,84,57,30.34,29.86,15,5,23,0.21